Time;durP1;ratioP1;P1;durP2;ratioP2;P2;SDS_P1;SDS_P2;PMS_P1;PMS_P2;Temp;Humidity;BMP_temperature;BMP_pressure;BME280_temperature;BME280_humidity;BME280_pressure;Samples;Min_cycle;Max_cycle;Signal;HPM_P1;HPM_P2
2023/03/09 00:00:29;;;;;;;27.67;9.98;;;;;;;-144.47;100.00;53122.25;5038100;28;20082;-67
2023/03/09 00:02:54;;;;;;;23.90;9.63;;;;;;;-144.47;100.00;53122.25;5035742;28;20032;-67
2023/03/09 00:05:20;;;;;;;26.83;9.95;;;;;;;-144.47;100.00;53110.31;5037684;28;20033;-67
2023/03/09 00:07:46;;;;;;;23.33;9.20;;;;;;;-144.47;100.00;53114.31;5027988;28;20025;-66
2023/03/09 00:10:13;;;;;;;21.52;8.90;;;;;;;-144.47;100.00;53116.28;5037468;28;20036;-67
2023/03/09 00:12:38;;;;;;;25.05;9.52;;;;;;;-144.47;100.00;53102.38;5027706;28;20025;-66
2023/03/09 00:15:04;;;;;;;25.08;10.05;;;;;;;-144.47;100.00;53088.47;5037211;28;20029;-65
2023/03/09 00:17:30;;;;;;;27.92;10.05;;;;;;;-144.47;100.00;53124.22;5034431;28;20098;-67
2023/03/09 00:19:55;;;;;;;25.50;9.50;;;;;;;-144.47;100.00;53106.34;5042536;28;20049;-67
2023/03/09 00:22:20;;;;;;;28.85;9.65;;;;;;;-144.47;100.00;53124.22;5047855;28;20108;-67
2023/03/09 00:24:46;;;;;;;22.45;9.23;;;;;;;-144.47;100.00;53124.22;5047121;28;20428;-66
2023/03/09 00:27:12;;;;;;;31.23;10.80;;;;;;;-144.47;100.00;53130.19;5047235;28;20050;-68
2023/03/09 00:29:37;;;;;;;26.40;9.82;;;;;;;-144.47;100.00;53092.44;5040510;28;20029;-68
2023/03/09 00:32:03;;;;;;;23.15;10.45;;;;;;;-144.47;100.00;53126.22;5047684;28;20028;-66
2023/03/09 00:34:28;;;;;;;21.23;9.48;;;;;;;-144.47;100.00;53126.22;5040046;28;20108;-67
2023/03/09 00:36:54;;;;;;;25.98;9.73;;;;;;;-144.47;100.00;53096.41;5038505;28;20029;-68
2023/03/09 00:39:19;;;;;;;25.95;8.88;;;;;;;-144.47;100.00;53102.38;5059592;28;20109;-68
2023/03/09 00:41:45;;;;;;;26.92;10.82;;;;;;;-144.47;100.00;53100.41;5050778;28;20028;-67
2023/03/09 00:44:12;;;;;;;19.30;9.00;;;;;;;-144.47;100.00;53130.19;5048563;28;20029;-68
2023/03/09 00:46:37;;;;;;;26.90;10.23;;;;;;;-144.47;100.00;53100.41;5050631;28;20090;-69
2023/03/09 00:49:05;;;;;;;27.20;9.45;;;;;;;-144.47;100.00;53100.41;5035617;28;20561;-67
2023/03/09 00:51:36;;;;;;;23.10;10.00;;;;;;;-144.47;100.00;53116.28;5035156;28;20017;-68
2023/03/09 00:54:02;;;;;;;27.38;9.45;;;;;;;-144.47;100.00;53134.16;5032643;28;20029;-69
2023/03/09 00:56:29;;;;;;;27.48;10.90;;;;;;;-144.47;100.00;53120.25;5027148;28;20361;-66
2023/03/09 00:58:55;;;;;;;27.40;9.73;;;;;;;-144.47;100.00;53128.22;5027351;28;20056;-68
2023/03/09 01:01:21;;;;;;;27.88;9.48;;;;;;;-144.47;100.00;53136.16;5031652;28;20043;-69
2023/03/09 01:03:46;;;;;;;24.40;9.55;;;;;;;-144.47;100.00;53104.38;5027331;28;20040;-65
2023/03/09 01:06:13;;;;;;;30.98;9.30;;;;;;;-144.47;100.00;53104.38;5039535;28;20018;-65
2023/03/09 01:08:39;;;;;;;29.77;11.35;;;;;;;-144.47;100.00;53132.19;5035130;28;20024;-67
2023/03/09 01:11:06;;;;;;;20.85;8.77;;;;;;;-144.47;100.00;53118.28;5027977;28;20483;-67
2023/03/09 01:13:32;;;;;;;26.17;10.20;;;;;;;-144.47;100.00;53118.28;5027543;28;20032;-67
2023/03/09 01:15:58;;;;;;;29.58;9.85;;;;;;;-144.47;100.00;53090.47;5024350;28;20033;-68
2023/03/09 01:18:23;;;;;;;27.10;10.75;;;;;;;-144.47;100.00;53112.31;5037522;28;20020;-65
2023/03/09 01:20:48;;;;;;;25.90;10.55;;;;;;;-144.47;100.00;53106.34;5039866;28;20136;-68
2023/03/09 01:23:14;;;;;;;27.77;9.45;;;;;;;-144.47;100.00;53118.28;5030910;28;20444;-65
2023/03/09 01:25:39;;;;;;;27.73;11.13;;;;;;;-144.47;100.00;53126.22;5031156;28;20435;-68
2023/03/09 01:28:04;;;;;;;30.02;11.15;;;;;;;-144.47;100.00;53136.16;5030289;28;20052;-69
2023/03/09 01:30:31;;;;;;;30.95;11.23;;;;;;;-144.47;100.00;53124.22;5030814;28;20123;-70
2023/03/09 01:32:57;;;;;;;29.17;9.98;;;;;;;-144.47;100.00;53110.31;5030698;28;20022;-67
2023/03/09 01:35:22;;;;;;;23.55;9.52;;;;;;;-144.47;100.00;53106.34;5030506;28;20017;-65
2023/03/09 01:37:47;;;;;;;22.88;8.88;;;;;;;-144.47;100.00;53116.28;5030054;28;20028;-67
2023/03/09 01:40:18;;;;;;;24.35;9.38;;;;;;;-144.47;100.00;53120.25;5030551;28;20027;-65
2023/03/09 01:42:43;;;;;;;27.75;9.07;;;;;;;-144.47;100.00;53098.41;5030846;28;20047;-66
2023/03/09 01:45:08;;;;;;;23.35;8.48;;;;;;;-144.47;100.00;53136.16;5034325;28;20482;-67
2023/03/09 01:47:34;;;;;;;22.33;8.15;;;;;;;-144.47;100.00;53118.28;5043371;28;20359;-65
2023/03/09 01:50:00;;;;;;;25.67;8.45;;;;;;;-144.47;100.00;53146.09;5030339;28;20041;-67
2023/03/09 01:52:30;;;;;;;23.75;9.00;;;;;;;-144.47;100.00;53118.28;5030401;28;20408;-66
2023/03/09 01:55:00;;;;;;;25.63;8.10;;;;;;;-144.47;100.00;53100.41;5040687;28;20076;-65
2023/03/09 01:57:32;;;;;;;32.08;10.52;;;;;;;-144.47;100.00;53126.22;5029405;28;20025;-66
2023/03/09 02:00:07;;;;;;;26.33;8.63;;;;;;;-144.47;100.00;53096.41;5029477;28;20025;-65
2023/03/09 02:02:38;;;;;;;20.45;8.93;;;;;;;-144.47;100.00;53126.22;5040123;28;20013;-67
2023/03/09 02:05:09;;;;;;;22.08;8.35;;;;;;;-144.47;100.00;53126.22;5045972;28;20120;-66
2023/03/09 02:07:37;;;;;;;18.48;7.78;;;;;;;-144.47;100.00;53140.13;5016509;28;20049;-65
2023/03/09 02:10:15;;;;;;;22.75;7.45;;;;;;;-144.47;100.00;53112.31;5036301;28;20026;-67
2023/03/09 02:12:41;;;;;;;20.35;7.43;;;;;;;-144.47;100.00;53122.25;5030109;28;20108;-66
2023/03/09 02:15:07;;;;;;;16.67;7.65;;;;;;;-144.47;100.00;53126.22;5029714;28;20033;-67
2023/03/09 02:17:33;;;;;;;18.00;7.30;;;;;;;-144.47;100.00;53102.38;5032285;28;20629;-67
2023/03/09 02:20:06;;;;;;;21.95;8.70;;;;;;;-144.47;100.00;53128.22;5042169;28;20044;-64
2023/03/09 02:22:37;;;;;;;15.35;6.60;;;;;;;-144.47;100.00;53120.25;5029825;28;20024;-66
2023/03/09 02:25:17;;;;;;;16.85;6.47;;;;;;;-144.47;100.00;53124.22;5029890;28;20111;-66
2023/03/09 02:27:45;;;;;;;18.40;7.35;;;;;;;-144.47;100.00;53090.47;5029211;28;20556;-66
2023/03/09 02:30:11;;;;;;;14.80;5.82;;;;;;;-144.47;100.00;53114.31;5028556;28;20060;-66
2023/03/09 02:32:36;;;;;;;16.88;6.80;;;;;;;-144.47;100.00;53118.28;5029674;28;20442;-65
2023/03/09 02:35:02;;;;;;;15.55;5.97;;;;;;;-144.47;100.00;53106.34;5029327;28;20120;-66
2023/03/09 02:37:35;;;;;;;14.52;5.85;;;;;;;-144.47;100.00;53140.13;5041640;28;20100;-67
2023/03/09 02:40:13;;;;;;;12.90;5.72;;;;;;;-144.47;100.00;53098.41;5042674;28;20543;-68
2023/03/09 02:42:38;;;;;;;12.52;5.40;;;;;;;-144.47;100.00;53128.22;5029273;28;20615;-67
2023/03/09 02:45:05;;;;;;;13.50;5.72;;;;;;;-144.47;100.00;53124.22;5029619;28;20108;-67
2023/03/09 02:47:31;;;;;;;13.32;4.80;;;;;;;-144.47;100.00;53130.19;5028572;28;20064;-67
2023/03/09 02:49:57;;;;;;;11.02;4.95;;;;;;;-144.47;100.00;53116.28;5019844;28;20052;-67
2023/03/09 02:52:22;;;;;;;12.60;5.20;;;;;;;-144.47;100.00;53118.28;5047264;28;20128;-67
2023/03/09 02:54:47;;;;;;;9.48;4.28;;;;;;;-144.47;100.00;53110.31;5029357;28;20037;-66
2023/03/09 02:57:13;;;;;;;9.55;4.13;;;;;;;-144.47;100.00;53128.22;5043708;28;20021;-67
2023/03/09 02:59:38;;;;;;;10.77;3.92;;;;;;;-144.47;100.00;53122.25;5049429;28;20525;-67
2023/03/09 03:02:04;;;;;;;10.00;4.00;;;;;;;-144.47;100.00;53128.22;5043154;28;20028;-66
2023/03/09 03:04:33;;;;;;;11.38;4.80;;;;;;;-144.47;100.00;53140.13;5041291;28;20092;-67
2023/03/09 03:06:58;;;;;;;8.00;3.78;;;;;;;-144.47;100.00;53108.34;5033407;28;20030;-67
2023/03/09 03:09:24;;;;;;;10.20;4.38;;;;;;;-144.47;100.00;53130.19;5035912;28;20036;-65
2023/03/09 03:11:49;;;;;;;10.15;4.63;;;;;;;-144.47;100.00;53118.28;5028982;28;20036;-66
2023/03/09 03:14:14;;;;;;;8.57;4.10;;;;;;;-144.47;100.00;53100.41;5029182;28;20041;-65
2023/03/09 03:16:39;;;;;;;10.00;4.38;;;;;;;-144.47;100.00;53126.22;5028150;28;20033;-67
2023/03/09 03:19:05;;;;;;;20.85;5.07;;;;;;;-144.47;100.00;53122.25;5042387;28;20029;-67
2023/03/09 03:21:30;;;;;;;9.73;4.38;;;;;;;-144.47;100.00;53112.31;5034307;28;20059;-69
2023/03/09 03:23:55;;;;;;;11.15;4.95;;;;;;;-144.47;100.00;53088.47;5029023;28;20061;-66
2023/03/09 03:26:21;;;;;;;10.07;4.55;;;;;;;-144.47;100.00;53118.28;5028176;28;20091;-67
2023/03/09 03:28:46;;;;;;;10.10;4.75;;;;;;;-144.47;100.00;53126.22;5011299;28;20482;-64
2023/03/09 03:31:12;;;;;;;9.20;3.65;;;;;;;-144.47;100.00;53114.31;5028221;28;20784;-67
2023/03/09 03:33:40;;;;;;;9.52;4.25;;;;;;;-144.47;100.00;53124.22;5048622;28;20470;-66
2023/03/09 03:36:06;;;;;;;11.73;5.10;;;;;;;-144.47;100.00;53104.38;5034242;28;20100;-65
2023/03/09 03:38:31;;;;;;;12.63;4.15;;;;;;;-144.47;100.00;53106.34;5028062;28;20528;-67
2023/03/09 03:40:57;;;;;;;9.98;4.40;;;;;;;-144.47;100.00;53086.50;5027928;28;20083;-65
2023/03/09 03:43:22;;;;;;;8.95;4.38;;;;;;;-144.47;100.00;53122.25;5035048;28;20021;-68
2023/03/09 03:45:47;;;;;;;7.60;3.35;;;;;;;-144.47;100.00;53144.09;5034394;28;20404;-65
2023/03/09 03:48:13;;;;;;;9.52;4.30;;;;;;;-144.47;100.00;53146.09;5034280;28;20064;-65
2023/03/09 03:50:38;;;;;;;10.52;4.60;;;;;;;-144.47;100.00;53116.28;5031562;28;20029;-66
2023/03/09 03:53:04;;;;;;;9.05;3.95;;;;;;;-144.47;100.00;53110.31;5031549;28;20029;-66
2023/03/09 03:55:29;;;;;;;8.93;4.07;;;;;;;-144.47;100.00;53110.31;5046447;28;20501;-67
2023/03/09 03:57:55;;;;;;;8.90;3.58;;;;;;;-144.47;100.00;53098.41;5031603;28;20091;-66
2023/03/09 04:00:20;;;;;;;8.90;4.80;;;;;;;-144.47;100.00;53120.25;5043387;28;20032;-69
2023/03/09 04:02:49;;;;;;;10.40;4.35;;;;;;;-144.47;100.00;53096.41;5033613;28;20041;-66
2023/03/09 04:05:14;;;;;;;9.68;3.80;;;;;;;-144.47;100.00;53118.28;5034310;28;20032;-66
2023/03/09 04:07:40;;;;;;;11.18;4.28;;;;;;;-144.47;100.00;53142.09;5029333;28;20029;-66
2023/03/09 04:10:06;;;;;;;9.18;4.05;;;;;;;-144.47;100.00;53114.31;5035587;28;20025;-65
2023/03/09 04:12:31;;;;;;;10.70;4.22;;;;;;;-144.47;100.00;53100.41;5029285;28;20443;-67
2023/03/09 04:14:56;;;;;;;10.60;4.63;;;;;;;-144.47;100.00;53104.38;5027966;28;20025;-67
2023/03/09 04:17:22;;;;;;;9.18;4.28;;;;;;;-144.47;100.00;53114.31;5013940;28;20477;-66
2023/03/09 04:19:47;;;;;;;7.88;3.95;;;;;;;-144.47;100.00;53102.38;5042163;28;20621;-68
2023/03/09 04:22:12;;;;;;;11.77;4.82;;;;;;;-144.47;100.00;53140.13;5028259;28;20447;-66
2023/03/09 04:24:38;;;;;;;9.18;4.15;;;;;;;-144.47;100.00;53118.28;5028128;28;20017;-67
2023/03/09 04:27:03;;;;;;;9.65;4.35;;;;;;;-144.47;100.00;53140.13;5015321;28;20036;-67
2023/03/09 04:29:28;;;;;;;12.02;4.97;;;;;;;-144.47;100.00;53116.28;5028418;28;20068;-68
2023/03/09 04:31:54;;;;;;;10.18;4.40;;;;;;;-144.47;100.00;53098.41;5027776;28;20509;-66
2023/03/09 04:34:19;;;;;;;9.32;4.57;;;;;;;-144.47;100.00;53086.50;5028140;28;20029;-68
2023/03/09 04:36:44;;;;;;;10.85;4.45;;;;;;;-144.47;100.00;53126.22;5027747;28;20068;-67
2023/03/09 04:39:10;;;;;;;10.60;4.45;;;;;;;-144.47;100.00;53120.25;5028146;28;20407;-68
2023/03/09 04:41:36;;;;;;;10.32;5.13;;;;;;;-144.47;100.00;53116.28;5027835;28;20109;-66
2023/03/09 04:44:02;;;;;;;9.10;4.50;;;;;;;-144.47;100.00;53100.41;5027728;28;20025;-65
2023/03/09 04:46:27;;;;;;;10.15;4.13;;;;;;;-144.47;100.00;53120.25;5027255;28;20094;-68
2023/03/09 04:48:53;;;;;;;9.50;4.18;;;;;;;-144.47;100.00;53124.22;5027466;28;20025;-68
2023/03/09 04:51:18;;;;;;;11.88;4.68;;;;;;;-144.47;100.00;53110.31;5040816;28;20041;-69
2023/03/09 04:53:47;;;;;;;13.25;5.15;;;;;;;-144.47;100.00;53098.41;5042265;28;20053;-66
2023/03/09 04:56:12;;;;;;;9.52;4.72;;;;;;;-144.47;100.00;53096.41;5032568;28;20510;-67
2023/03/09 04:58:38;;;;;;;12.00;4.70;;;;;;;-144.47;100.00;53142.09;5044435;28;20057;-67
2023/03/09 05:01:03;;;;;;;18.10;6.47;;;;;;;-144.47;100.00;53124.22;5046849;28;20024;-67
2023/03/09 05:03:29;;;;;;;15.57;6.40;;;;;;;-144.47;100.00;53130.19;5042146;28;20082;-68
2023/03/09 05:05:54;;;;;;;11.95;5.28;;;;;;;-144.47;100.00;53108.34;5044875;28;20849;-67
2023/03/09 05:08:23;;;;;;;11.98;5.40;;;;;;;-144.47;100.00;53122.25;5038004;28;20028;-65
2023/03/09 05:10:48;;;;;;;12.07;5.50;;;;;;;-144.47;100.00;53132.19;5032834;28;20091;-69
2023/03/09 05:13:13;;;;;;;12.35;4.95;;;;;;;-144.47;100.00;53122.25;5031728;28;20049;-65
2023/03/09 05:15:40;;;;;;;10.65;4.88;;;;;;;-144.47;100.00;53136.16;5031320;28;20112;-67
2023/03/09 05:18:06;;;;;;;11.10;4.72;;;;;;;-144.47;100.00;53106.34;5037888;28;20391;-67
2023/03/09 05:20:32;;;;;;;8.75;4.45;;;;;;;-144.47;100.00;53114.31;5039049;28;20068;-66
2023/03/09 05:23:01;;;;;;;9.63;5.15;;;;;;;-144.47;100.00;53106.34;5030998;28;20083;-68
2023/03/09 05:25:27;;;;;;;12.40;5.53;;;;;;;-144.47;100.00;53128.22;5018586;28;20095;-68
2023/03/09 05:27:52;;;;;;;14.45;5.80;;;;;;;-144.47;100.00;53100.41;5030598;28;20029;-68
2023/03/09 05:30:19;;;;;;;21.05;7.63;;;;;;;-144.47;100.00;53110.31;5017569;28;20056;-68
2023/03/09 05:32:45;;;;;;;15.45;6.03;;;;;;;-144.47;100.00;53106.34;5029883;28;20107;-68
2023/03/09 05:35:11;;;;;;;16.10;6.65;;;;;;;-144.47;100.00;53126.22;5031247;28;20037;-65
2023/03/09 05:37:36;;;;;;;13.43;5.60;;;;;;;-144.47;100.00;53106.34;5030491;28;20021;-67
2023/03/09 05:40:04;;;;;;;13.63;5.85;;;;;;;-144.47;100.00;53104.38;5030856;28;20037;-65
2023/03/09 05:42:30;;;;;;;14.55;6.43;;;;;;;-144.47;100.00;53140.13;5030133;28;20025;-66
2023/03/09 05:44:55;;;;;;;13.73;5.82;;;;;;;-144.47;100.00;53152.03;5030700;28;20394;-68
2023/03/09 05:47:20;;;;;;;10.43;5.28;;;;;;;-144.47;100.00;53122.25;5038826;28;20044;-66
2023/03/09 05:49:48;;;;;;;9.85;4.88;;;;;;;-144.47;100.00;53108.34;5043871;28;20030;-66
2023/03/09 05:52:14;;;;;;;16.27;6.55;;;;;;;-144.47;100.00;53098.41;5033568;28;20172;-67
2023/03/09 05:54:39;;;;;;;13.30;6.35;;;;;;;-144.47;100.00;53098.41;5040040;28;20112;-68
2023/03/09 05:57:05;;;;;;;12.23;6.00;;;;;;;-144.47;100.00;53128.22;5030491;28;20032;-68
2023/03/09 05:59:30;;;;;;;12.25;5.90;;;;;;;-144.47;100.00;53102.38;5032822;28;20051;-67
2023/03/09 06:01:56;;;;;;;16.20;5.22;;;;;;;-144.47;100.00;53144.09;5033073;28;20052;-68
2023/03/09 06:04:21;;;;;;;17.42;6.90;;;;;;;-144.47;100.00;53138.13;5042310;28;20536;-66
2023/03/09 06:06:46;;;;;;;16.33;6.05;;;;;;;-144.47;100.00;53120.25;5030435;28;20028;-68
2023/03/09 06:09:12;;;;;;;16.60;6.13;;;;;;;-144.47;100.00;53114.31;5041601;28;20033;-68
2023/03/09 06:11:37;;;;;;;15.98;6.72;;;;;;;-144.47;100.00;53126.22;5030401;28;20037;-69
2023/03/09 06:14:02;;;;;;;16.67;7.32;;;;;;;-144.47;100.00;53126.22;5019633;28;20130;-67
2023/03/09 06:16:28;;;;;;;15.95;8.02;;;;;;;-144.47;100.00;53118.28;5022658;28;20033;-68
2023/03/09 06:18:56;;;;;;;15.85;6.50;;;;;;;-144.47;100.00;53134.16;5029025;28;20373;-67
2023/03/09 06:21:22;;;;;;;14.02;7.28;;;;;;;-144.47;100.00;53136.16;5040007;28;20079;-68
2023/03/09 06:23:47;;;;;;;12.95;7.35;;;;;;;-144.47;100.00;53112.31;5034404;28;20149;-68
2023/03/09 06:26:12;;;;;;;14.65;6.97;;;;;;;-144.47;100.00;53122.25;5039188;28;20111;-68
2023/03/09 06:28:38;;;;;;;20.00;8.25;;;;;;;-144.47;100.00;53104.38;5034681;28;20056;-69
2023/03/09 06:31:11;;;;;;;16.98;6.05;;;;;;;-144.47;100.00;53108.34;5031609;28;20093;-68
2023/03/09 06:33:37;;;;;;;11.63;5.60;;;;;;;-144.47;100.00;53106.34;5028876;28;20047;-67
2023/03/09 06:36:03;;;;;;;14.75;6.10;;;;;;;-144.47;100.00;53124.22;5030118;28;20583;-67
2023/03/09 06:38:28;;;;;;;11.63;5.10;;;;;;;-144.47;100.00;53124.22;5029164;28;20025;-69
2023/03/09 06:40:54;;;;;;;14.68;7.25;;;;;;;-144.47;100.00;53096.41;5038526;28;20305;-67
2023/03/09 06:43:20;;;;;;;12.35;5.85;;;;;;;-144.47;100.00;53094.44;5040693;28;20109;-68
2023/03/09 06:45:45;;;;;;;11.73;5.72;;;;;;;-144.47;100.00;53128.22;5029796;28;20029;-68
2023/03/09 06:48:11;;;;;;;16.85;6.32;;;;;;;-144.47;100.00;53122.25;5029523;28;20387;-68
2023/03/09 06:50:36;;;;;;;13.27;6.15;;;;;;;-144.47;100.00;53124.22;5029071;28;20036;-69
2023/03/09 06:53:02;;;;;;;14.95;6.15;;;;;;;-144.47;100.00;53092.44;5031415;28;20336;-68
2023/03/09 06:55:28;;;;;;;13.95;6.28;;;;;;;-144.47;100.00;53120.25;5030671;28;20109;-68
2023/03/09 06:57:53;;;;;;;12.48;6.40;;;;;;;-144.47;100.00;53092.44;5029831;28;20075;-68
2023/03/09 07:00:19;;;;;;;14.10;5.85;;;;;;;-144.47;100.00;53118.28;5015321;28;20074;-67
2023/03/09 07:02:45;;;;;;;15.75;6.00;;;;;;;-144.47;100.00;53118.28;5039239;28;20018;-70
2023/03/09 07:05:10;;;;;;;16.77;7.00;;;;;;;-144.47;100.00;53106.34;5051767;28;20025;-68
2023/03/09 07:07:36;;;;;;;12.88;5.40;;;;;;;-144.47;100.00;53120.25;5033643;28;20055;-67
2023/03/09 07:10:01;;;;;;;11.93;6.35;;;;;;;-144.47;100.00;53094.44;5038143;28;20057;-69
2023/03/09 07:12:27;;;;;;;11.68;5.93;;;;;;;-144.47;100.00;53094.44;5030193;28;20025;-67
2023/03/09 07:14:52;;;;;;;12.85;5.93;;;;;;;-144.47;100.00;53126.22;5012083;28;20021;-66
2023/03/09 07:17:18;;;;;;;16.42;6.60;;;;;;;-144.47;100.00;53076.56;5035320;28;20032;-69
2023/03/09 07:19:44;;;;;;;12.65;5.82;;;;;;;-144.47;100.00;53124.22;5041775;28;20033;-66
2023/03/09 07:22:11;;;;;;;18.60;7.30;;;;;;;-144.47;100.00;53092.44;5016620;28;20027;-66
2023/03/09 07:24:36;;;;;;;12.35;6.18;;;;;;;-144.47;100.00;53102.38;5029446;28;20026;-67
2023/03/09 07:27:02;;;;;;;10.32;5.13;;;;;;;-144.47;100.00;53114.31;5030040;28;20447;-67
2023/03/09 07:29:27;;;;;;;12.20;5.40;;;;;;;-144.47;100.00;53088.47;5029262;28;20444;-69
2023/03/09 07:31:53;;;;;;;13.30;6.05;;;;;;;-144.47;100.00;53100.41;5029924;28;20024;-70
2023/03/09 07:34:18;;;;;;;12.35;5.47;;;;;;;-144.47;100.00;53086.50;5028856;28;20108;-67
2023/03/09 07:36:44;;;;;;;12.02;5.78;;;;;;;-144.47;100.00;53090.47;5028863;28;20041;-67
2023/03/09 07:39:09;;;;;;;12.57;5.55;;;;;;;-144.47;100.00;53096.41;5031698;28;20344;-66
2023/03/09 07:41:34;;;;;;;12.38;5.65;;;;;;;-144.47;100.00;53078.53;5038887;28;20108;-69
2023/03/09 07:44:00;;;;;;;18.88;5.45;;;;;;;-144.47;100.00;53084.50;5034981;28;20025;-69
2023/03/09 07:46:25;;;;;;;13.07;6.13;;;;;;;-144.47;100.00;53114.31;5042335;28;20463;-70
2023/03/09 07:48:51;;;;;;;12.02;5.82;;;;;;;-144.47;100.00;53108.34;5045053;28;20029;-68
2023/03/09 07:51:21;;;;;;;19.67;5.93;;;;;;;-144.47;100.00;53090.47;5033055;28;20076;-69
2023/03/09 07:53:47;;;;;;;12.75;5.90;;;;;;;-144.47;100.00;53098.41;5032511;28;20075;-71
2023/03/09 07:56:12;;;;;;;14.50;6.03;;;;;;;-144.47;100.00;53054.72;5029635;28;20086;-68
2023/03/09 07:58:39;;;;;;;12.05;5.57;;;;;;;-144.47;100.00;53074.56;5043011;28;20462;-69
2023/03/09 08:01:06;;;;;;;11.43;5.28;;;;;;;-144.47;100.00;53092.44;5031875;28;20022;-69
2023/03/09 08:03:32;;;;;;;16.50;5.57;;;;;;;-144.47;100.00;53090.47;5036270;28;20036;-68
2023/03/09 08:06:00;;;;;;;14.57;6.05;;;;;;;-144.47;100.00;53068.63;5032200;28;20033;-71
2023/03/09 08:08:26;;;;;;;18.73;6.60;;;;;;;-144.47;100.00;53058.69;5027451;28;20029;-71
2023/03/09 08:10:52;;;;;;;11.77;5.55;;;;;;;-144.47;100.00;53058.69;5028213;28;20030;-69
2023/03/09 08:13:18;;;;;;;12.30;6.35;;;;;;;-144.47;100.00;53072.59;5028398;28;20021;-70
2023/03/09 08:15:44;;;;;;;14.07;6.05;;;;;;;-144.47;100.00;53090.47;5027191;28;20118;-68
2023/03/09 08:18:10;;;;;;;11.95;5.32;;;;;;;-144.47;100.00;53042.78;5036656;28;20558;-67
2023/03/09 08:20:36;;;;;;;12.20;5.72;;;;;;;-144.47;100.00;53082.53;5035333;28;20044;-70
2023/03/09 08:23:02;;;;;;;14.93;6.45;;;;;;;-144.47;100.00;53084.50;5009718;28;20367;-66
2023/03/09 08:25:30;;;;;;;9.18;4.45;;;;;;;-144.47;100.00;53070.59;5028239;28;20116;-65
2023/03/09 08:27:55;;;;;;;16.38;6.22;;;;;;;-144.47;100.00;53098.41;5026409;28;20144;-71
2023/03/09 08:30:21;;;;;;;12.90;6.25;;;;;;;-144.47;100.00;53082.53;5031246;28;20387;-71
2023/03/09 08:32:48;;;;;;;15.32;6.53;;;;;;;-144.47;100.00;53074.56;5029136;28;20051;-71
2023/03/09 08:35:15;;;;;;;13.05;6.03;;;;;;;-144.47;100.00;53106.34;5033985;28;20175;-68
2023/03/09 08:37:40;;;;;;;13.30;6.88;;;;;;;-144.47;100.00;53080.53;5040121;28;20491;-70
2023/03/09 08:40:07;;;;;;;14.57;6.72;;;;;;;-144.47;100.00;53074.56;5033511;28;20098;-67
2023/03/09 08:42:33;;;;;;;12.98;6.07;;;;;;;-144.47;100.00;53068.63;5026126;28;20040;-70
2023/03/09 08:44:59;;;;;;;12.70;6.68;;;;;;;-144.47;100.00;53072.59;5009814;28;20021;-67
2023/03/09 08:47:25;;;;;;;16.85;6.65;;;;;;;-144.47;100.00;53074.56;5027375;28;20096;-69
2023/03/09 08:49:50;;;;;;;15.38;7.20;;;;;;;-144.47;100.00;53096.41;5034926;28;20059;-69
2023/03/09 08:52:15;;;;;;;15.98;6.47;;;;;;;-144.47;100.00;53058.69;5037119;28;20037;-70
2023/03/09 08:54:41;;;;;;;13.43;5.85;;;;;;;-144.47;100.00;53034.84;5030932;28;20021;-68
2023/03/09 08:57:06;;;;;;;12.07;6.05;;;;;;;-144.47;100.00;53110.31;5027094;28;20080;-71
2023/03/09 08:59:32;;;;;;;13.60;6.43;;;;;;;-144.47;100.00;53080.53;5028286;28;20594;-67
2023/03/09 09:01:57;;;;;;;17.48;6.55;;;;;;;-144.47;100.00;53070.59;5033553;28;20108;-69
2023/03/09 09:04:23;;;;;;;15.98;7.15;;;;;;;-144.47;100.00;53066.63;5036762;28;20040;-70
2023/03/09 09:06:49;;;;;;;14.05;6.95;;;;;;;-144.47;100.00;53068.63;5040375;28;20033;-67
2023/03/09 09:09:15;;;;;;;14.80;6.80;;;;;;;-144.47;100.00;53064.66;5039035;28;20090;-69
2023/03/09 09:11:40;;;;;;;13.60;6.43;;;;;;;-144.47;100.00;53092.44;5047128;28;20086;-69
2023/03/09 09:14:05;;;;;;;13.65;6.65;;;;;;;-144.47;100.00;53066.63;5039886;28;20037;-72
2023/03/09 09:36:41;;;;;;;11.25;5.68;;;;;;;-144.47;97.14;53066.63;5016315;28;20036;-71
2023/03/09 09:39:06;;;;;;;11.82;6.07;;;;;;;-144.47;94.54;53026.91;5028100;28;20025;-68
2023/03/09 09:41:40;;;;;;;12.30;5.57;;;;;;;-144.47;94.38;53044.78;5030554;28;20030;-69
2023/03/09 09:44:16;;;;;;;13.88;6.13;;;;;;;-144.47;93.64;53054.72;5030466;28;20033;-68
2023/03/09 09:46:42;;;;;;;12.45;6.25;;;;;;;-144.47;95.12;53018.97;5043593;28;20040;-69
2023/03/09 09:49:15;;;;;;;13.00;5.55;;;;;;;-144.47;93.93;53007.03;5031351;28;20048;-67
2023/03/09 09:51:41;;;;;;;12.65;5.38;;;;;;;-144.47;92.72;53013.00;5013063;28;20033;-70
2023/03/09 09:54:19;;;;;;;12.32;5.72;;;;;;;-144.47;91.84;53015.00;5034945;28;20105;-68
2023/03/09 09:56:50;;;;;;;13.17;4.77;;;;;;;-144.47;91.37;53048.75;5031791;28;20086;-72
2023/03/09 09:59:41;;;;;;;11.75;5.43;;;;;;;-144.47;90.95;53034.84;5029826;28;20073;-70
2023/03/09 10:02:09;;;;;;;12.70;6.05;;;;;;;-144.47;93.34;53024.91;5044102;28;20690;-69
2023/03/09 10:04:52;;;;;;;13.82;5.93;;;;;;;-144.47;92.99;53013.00;5043055;28;20055;-70
2023/03/09 10:07:20;;;;;;;12.82;6.72;;;;;;;-144.47;94.34;53011.00;5018492;28;20129;-68
2023/03/09 10:09:52;;;;;;;11.00;5.70;;;;;;;-144.47;94.85;53026.91;5034333;28;20028;-68
2023/03/09 10:12:18;;;;;;;11.65;5.72;;;;;;;-144.47;94.84;53024.91;5045762;28;20216;-68
2023/03/09 10:15:04;;;;;;;14.45;6.03;;;;;;;-144.47;95.42;53020.94;5047279;28;20853;-72
2023/03/09 10:17:37;;;;;;;13.13;6.13;;;;;;;-144.47;95.57;53038.81;5028091;28;20025;-68
2023/03/09 10:20:13;;;;;;;11.50;5.68;;;;;;;-144.47;95.47;53020.94;5036851;28;20113;-72
2023/03/09 10:22:41;;;;;;;11.55;5.55;;;;;;;-144.47;95.05;53026.91;5029346;28;20060;-70
2023/03/09 10:25:15;;;;;;;13.45;5.65;;;;;;;-144.47;95.93;53016.97;5029156;28;20140;-69
2023/03/09 10:27:47;;;;;;;12.00;5.85;;;;;;;-144.47;96.69;53052.72;5004595;23;1096398;-72
2023/03/09 10:30:30;;;;;;;11.55;5.90;;;;;;;-144.47;96.62;53042.78;5052347;28;20036;-71
2023/03/09 10:33:04;;;;;;;11.05;5.43;;;;;;;-144.47;96.89;53015.00;5064721;28;20028;-72
2023/03/09 10:35:48;;;;;;;15.15;6.63;;;;;;;-144.47;97.45;53030.88;5052333;28;20104;-75
2023/03/09 10:38:18;;;;;;;13.35;6.22;;;;;;;-144.47;96.26;53048.75;5059755;28;20072;-72
2023/03/09 10:40:47;;;;;;;14.00;5.75;;;;;;;-144.47;96.49;53026.91;5051598;28;20090;-71
2023/03/09 10:43:32;;;;;;;13.63;6.57;;;;;;;-144.47;96.40;53032.88;5056532;28;20032;-75
2023/03/09 10:46:23;;;;;;;16.65;7.28;;;;;;;-144.47;96.02;53042.78;5070947;28;20078;-74
2023/03/09 10:49:07;;;;;;;14.02;6.60;;;;;;;-144.47;95.88;53030.88;5051025;28;20466;-74
2023/03/09 10:51:40;;;;;;;14.90;7.53;;;;;;;-144.47;95.79;53070.59;5046383;28;20025;-70
2023/03/09 10:54:17;;;;;;;18.65;7.40;;;;;;;-144.47;95.94;53030.88;5050987;28;20101;-73
2023/03/09 10:56:45;;;;;;;13.68;6.75;;;;;;;-144.47;96.06;53062.66;5066995;28;20028;-74
2023/03/09 10:59:18;;;;;;;15.35;7.05;;;;;;;-144.47;95.31;53028.88;5056054;28;20055;-72
2023/03/09 11:01:46;;;;;;;15.93;7.65;;;;;;;-144.47;95.30;53038.81;5061326;28;20414;-74
2023/03/09 11:04:21;;;;;;;13.65;6.45;;;;;;;-144.47;95.47;53044.78;5049788;28;20112;-71
2023/03/09 11:06:49;;;;;;;16.40;7.57;;;;;;;-144.47;95.05;53026.91;5053531;28;20414;-71
2023/03/09 11:09:26;;;;;;;16.50;8.00;;;;;;;-144.47;95.79;53030.88;5052460;28;20073;-72
2023/03/09 11:11:51;;;;;;;13.43;6.90;;;;;;;-144.47;95.65;53042.78;5044392;28;20438;-72
2023/03/09 11:14:23;;;;;;;14.55;7.38;;;;;;;-144.47;94.75;53058.69;5051723;28;20116;-75
2023/03/09 11:16:51;;;;;;;15.00;7.47;;;;;;;-144.47;93.22;53026.91;5047719;28;20029;-73
2023/03/09 11:19:17;;;;;;;14.80;6.85;;;;;;;-144.47;93.54;53036.84;5045083;28;20134;-70
2023/03/09 11:21:52;;;;;;;15.73;7.07;;;;;;;-144.47;93.33;53024.91;5050049;28;20578;-73